createdAt,value
2018-11-14T00:00:35.355Z,8.39
2018-11-14T00:03:04.843Z,8.36
2018-11-14T00:05:34.627Z,8.29
2018-11-14T00:08:04.230Z,8.07
2018-11-14T00:10:33.494Z,8.05
2018-11-14T00:13:03.021Z,8.12
2018-11-14T00:15:32.515Z,8.06
2018-11-14T00:18:02.044Z,8.03
2018-11-14T00:20:31.543Z,7.91
2018-11-14T00:23:01.024Z,7.90
2018-11-14T00:25:30.556Z,7.84
2018-11-14T00:28:00.394Z,7.85
2018-11-14T00:30:29.341Z,7.78
2018-11-14T00:32:58.916Z,7.60
2018-11-14T00:35:28.880Z,7.50
2018-11-14T00:37:58.261Z,7.64
2018-11-14T00:40:27.815Z,7.67
2018-11-14T00:42:57.714Z,7.58
2018-11-14T00:45:27.401Z,7.55
2018-11-14T00:47:56.889Z,7.52
2018-11-14T00:50:26.414Z,7.42
2018-11-14T00:52:55.659Z,7.47
2018-11-14T00:55:25.419Z,7.39
2018-11-14T00:57:54.927Z,7.38
2018-11-14T01:00:25.565Z,7.34
2018-11-14T01:02:55.371Z,7.32
2018-11-14T01:05:24.881Z,7.47
2018-11-14T01:07:54.481Z,7.36
2018-11-14T01:10:23.908Z,7.24
2018-11-14T01:12:53.356Z,7.36
2018-11-14T01:15:23.735Z,7.13
2018-11-14T01:17:52.994Z,7.39
2018-11-14T01:20:23.425Z,7.61
2018-11-14T01:22:52.849Z,7.40
2018-11-14T01:25:22.339Z,7.21
2018-11-14T01:27:51.646Z,7.32
2018-11-14T01:30:23.238Z,7.11
2018-11-14T01:32:53.584Z,7.24
2018-11-14T01:35:23.099Z,7.28
2018-11-14T01:37:52.547Z,7.22
2018-11-14T01:40:24.223Z,7.19
2018-11-14T01:42:56.150Z,7.23
2018-11-14T01:45:25.774Z,7.27
2018-11-14T01:47:55.039Z,7.25
2018-11-14T01:50:24.803Z,7.27
2018-11-14T01:52:54.283Z,7.04
2018-11-14T01:55:23.762Z,7.04
2018-11-14T01:57:53.315Z,7.09
2018-11-14T02:00:24.263Z,6.98
2018-11-14T02:02:54.018Z,7.08
2018-11-14T02:05:23.655Z,7.01
2018-11-14T02:07:52.945Z,6.98
2018-11-14T02:10:22.455Z,6.91
2018-11-14T02:12:51.655Z,6.98
2018-11-14T02:15:23.027Z,7.09
2018-11-14T02:17:53.013Z,7.00
2018-11-14T02:20:22.327Z,6.91
2018-11-14T02:22:51.823Z,7.00
2018-11-14T02:25:22.097Z,6.93
2018-11-14T02:27:51.377Z,6.91
2018-11-14T02:30:22.276Z,6.96
2018-11-14T02:32:51.720Z,6.96
2018-11-14T02:35:22.104Z,6.90
2018-11-14T02:37:51.326Z,6.84
2018-11-14T02:40:22.176Z,6.93
2018-11-14T02:42:52.111Z,6.93
2018-11-14T02:45:22.025Z,7.04
2018-11-14T02:47:53.122Z,7.07
2018-11-14T02:50:23.031Z,6.92
2018-11-14T02:52:52.611Z,6.99
2018-11-14T02:55:22.200Z,7.08
2018-11-14T02:57:51.663Z,6.96
2018-11-14T03:00:22.585Z,7.01
2018-11-14T03:02:52.525Z,6.80
2018-11-14T03:05:22.042Z,6.76
2018-11-14T03:07:51.868Z,6.87
2018-11-14T03:10:22.075Z,6.93
2018-11-14T03:12:51.336Z,6.99
2018-11-14T03:15:22.332Z,7.13
2018-11-14T03:17:52.014Z,7.01
2018-11-14T03:20:22.336Z,6.99
2018-11-14T03:22:51.628Z,6.96
2018-11-14T03:25:21.350Z,6.90
2018-11-14T03:27:50.590Z,6.95
2018-11-14T03:30:20.138Z,6.95
2018-11-14T03:32:49.348Z,6.97
2018-11-14T03:35:18.720Z,7.07
2018-11-14T03:37:48.247Z,7.10
2018-11-14T03:40:18.033Z,7.05
2018-11-14T03:42:47.360Z,7.11
2018-11-14T03:45:16.603Z,7.15
2018-11-14T03:47:46.593Z,7.20
2018-11-14T03:50:15.795Z,7.12
2018-11-14T03:52:45.018Z,7.18
2018-11-14T03:55:14.212Z,7.20
2018-11-14T03:57:43.458Z,7.24
2018-11-14T04:00:16.026Z,7.14
2018-11-14T04:02:46.373Z,7.13
2018-11-14T04:05:15.677Z,7.01
2018-11-14T04:07:44.931Z,7.09
2018-11-14T04:10:14.682Z,7.06
2018-11-14T04:12:44.180Z,7.03
2018-11-14T04:15:14.347Z,7.02
2018-11-14T04:17:43.622Z,6.99
2018-11-14T04:20:15.164Z,6.99
2018-11-14T04:22:44.576Z,6.90
2018-11-14T04:25:15.371Z,6.86
2018-11-14T04:27:45.260Z,6.79
2018-11-14T04:30:17.361Z,6.90
2018-11-14T04:32:46.586Z,6.81
2018-11-14T04:35:16.688Z,6.70
2018-11-14T04:37:45.928Z,6.73
2018-11-14T04:40:17.325Z,6.75
2018-11-14T04:42:46.544Z,6.49
2018-11-14T04:45:18.243Z,6.77
2018-11-14T04:47:47.587Z,6.66
2018-11-14T04:50:18.655Z,6.73
2018-11-14T04:52:48.672Z,6.72
2018-11-14T04:55:18.964Z,6.74
2018-11-14T04:57:48.504Z,6.71
2018-11-14T05:00:18.746Z,6.68
2018-11-14T05:02:48.660Z,6.78
2018-11-14T05:05:19.020Z,6.87
2018-11-14T05:07:48.292Z,6.91
2018-11-14T05:10:19.691Z,6.93
2018-11-14T05:12:49.199Z,6.95
2018-11-14T05:15:19.853Z,6.95
2018-11-14T05:17:49.575Z,6.82
2018-11-14T05:20:19.697Z,6.74
2018-11-14T05:22:49.228Z,6.80
2018-11-14T05:25:18.737Z,6.83
2018-11-14T05:27:48.011Z,6.80
2018-11-14T05:30:20.278Z,6.74
2018-11-14T05:32:50.123Z,6.70
2018-11-14T05:35:19.364Z,6.58
2018-11-14T05:37:48.967Z,6.61
2018-11-14T05:40:19.517Z,6.55
2018-11-14T05:42:49.179Z,6.49
2018-11-14T05:45:21.882Z,6.41
2018-11-14T05:47:51.011Z,6.38
2018-11-14T05:50:21.407Z,6.33
2018-11-14T05:52:50.688Z,6.35
2018-11-14T05:55:19.982Z,6.32
2018-11-14T05:57:49.219Z,6.38
2018-11-14T06:00:31.368Z,6.34
2018-11-14T06:03:01.862Z,6.36
2018-11-14T06:05:31.213Z,6.35
2018-11-14T06:08:00.760Z,6.31
2018-11-14T06:10:30.607Z,6.28
2018-11-14T06:13:00.318Z,6.21
2018-11-14T06:15:29.871Z,6.16
2018-11-14T06:17:59.494Z,6.09
2018-11-14T06:20:28.820Z,6.15
2018-11-14T06:22:58.382Z,6.21
2018-11-14T06:25:36.218Z,6.28
2018-11-14T06:28:08.063Z,6.26
2018-11-14T06:30:38.925Z,6.26
2018-11-14T06:33:09.896Z,6.22
2018-11-14T06:35:39.625Z,6.14
2018-11-14T06:38:08.920Z,6.08
2018-11-14T06:40:38.774Z,6.15
2018-11-14T06:43:08.384Z,6.20
2018-11-14T06:45:37.626Z,6.18
2018-11-14T06:48:07.570Z,6.04
2018-11-14T06:50:36.833Z,6.15
2018-11-14T06:53:07.195Z,6.11
2018-11-14T06:55:36.647Z,6.19
2018-11-14T06:58:06.167Z,6.15
2018-11-14T07:00:36.290Z,6.03
2018-11-14T07:03:07.144Z,6.24
2018-11-14T07:05:36.358Z,6.33
2018-11-14T07:08:06.303Z,6.16
2018-11-14T07:10:37.114Z,6.36
2018-11-14T07:13:10.603Z,6.33
2018-11-14T07:15:40.895Z,6.39
2018-11-14T07:18:11.640Z,6.34
2018-11-14T07:20:42.881Z,6.30
2018-11-14T07:23:12.287Z,6.45
2018-11-14T07:25:41.774Z,6.75
2018-11-14T07:28:11.039Z,6.69
2018-11-14T07:30:40.384Z,6.68
2018-11-14T07:33:10.933Z,6.80
2018-11-14T07:35:40.482Z,6.87
2018-11-14T07:38:47.454Z,6.89
2018-11-14T07:41:21.946Z,7.04
2018-11-14T07:43:51.597Z,7.26
2018-11-14T07:46:21.682Z,7.29
2018-11-14T07:48:51.816Z,7.29
2018-11-14T07:51:21.629Z,7.43
2018-11-14T07:53:51.394Z,7.51
2018-11-14T07:56:21.155Z,7.62
2018-11-14T07:58:50.595Z,8.10
2018-11-14T08:01:19.919Z,7.80
2018-11-14T08:03:49.699Z,7.78
2018-11-14T08:06:20.369Z,7.52
2018-11-14T08:08:50.254Z,7.58
2018-11-14T08:11:19.538Z,8.20
2018-11-14T08:13:49.891Z,8.26
2018-11-14T08:16:19.809Z,8.31
2018-11-14T08:18:49.436Z,8.34
2018-11-14T08:21:19.024Z,8.40
2018-11-14T08:23:49.093Z,8.66
2018-11-14T08:26:18.425Z,9.14
2018-11-14T08:28:48.141Z,9.41
2018-11-14T08:31:18.354Z,9.35
2018-11-14T08:33:50.609Z,9.27
2018-11-14T08:36:19.821Z,8.91
2018-11-14T08:38:49.449Z,9.28
2018-11-14T08:41:19.118Z,9.83
2018-11-14T08:43:48.688Z,10.21
2018-11-14T08:46:18.748Z,10.29
2018-11-14T08:48:48.279Z,10.51
2018-11-14T08:51:18.380Z,10.32
2018-11-14T08:53:47.894Z,10.03
2018-11-14T08:56:17.404Z,10.58
2018-11-14T08:58:47.326Z,10.72
2018-11-14T09:01:16.832Z,11.56
2018-11-14T09:03:46.684Z,11.76
2018-11-14T09:06:16.127Z,11.71
2018-11-14T09:08:45.558Z,11.11
2018-11-14T09:11:15.131Z,11.14
2018-11-14T09:13:44.599Z,10.80
2018-11-14T09:16:14.907Z,10.31
2018-11-14T09:18:44.151Z,9.95
2018-11-14T09:21:13.617Z,10.68
2018-11-14T09:23:43.056Z,11.47
2018-11-14T09:26:12.722Z,11.55
2018-11-14T09:28:42.006Z,11.48
2018-11-14T09:31:11.956Z,11.63
2018-11-14T09:33:41.623Z,11.79
2018-11-14T09:36:11.582Z,12.28
2018-11-14T09:38:40.839Z,12.89
2018-11-14T09:41:10.116Z,12.70
2018-11-14T09:43:39.828Z,11.70
2018-11-14T09:46:09.370Z,12.79
2018-11-14T09:48:39.471Z,14.81
2018-11-14T09:51:09.140Z,16.46
2018-11-14T09:53:38.715Z,16.46
2018-11-14T09:56:08.186Z,15.46
2018-11-14T09:58:37.522Z,14.71
2018-11-14T10:01:06.832Z,14.92
2018-11-14T10:03:36.348Z,14.95
2018-11-14T10:06:06.099Z,15.02
2018-11-14T10:08:35.502Z,15.47
2018-11-14T10:11:04.817Z,14.93
2018-11-14T10:13:34.285Z,16.94
2018-11-14T10:16:03.606Z,16.37
2018-11-14T10:18:33.207Z,16.67
2018-11-14T10:21:02.651Z,16.84
2018-11-14T10:23:32.155Z,14.44
2018-11-14T10:26:01.659Z,12.25
2018-11-14T10:28:31.158Z,12.98
2018-11-14T10:31:00.882Z,13.44
2018-11-14T10:33:30.355Z,13.15
2018-11-14T10:36:00.540Z,13.51
2018-11-14T10:38:29.766Z,13.78
2018-11-14T10:40:59.653Z,13.57
2018-11-14T10:43:29.599Z,14.00
2018-11-14T10:45:59.111Z,13.85
2018-11-14T10:48:28.612Z,14.26
2018-11-14T10:50:58.155Z,14.45
2018-11-14T10:53:27.626Z,14.59
2018-11-14T10:55:57.099Z,15.30
2018-11-14T10:58:26.475Z,15.59
2018-11-14T11:01:01.388Z,14.44
2018-11-14T11:03:40.070Z,15.03
2018-11-14T11:06:14.361Z,14.65
2018-11-14T11:08:48.844Z,14.53
2018-11-14T11:11:19.819Z,14.54
2018-11-14T11:14:20.423Z,15.31
2018-11-14T11:16:55.163Z,15.66
2018-11-14T11:19:31.686Z,15.36
2018-11-14T11:22:01.213Z,15.50
2018-11-14T11:24:30.438Z,15.41
2018-11-14T11:26:59.675Z,16.00
2018-11-14T11:29:29.962Z,16.52
2018-11-14T11:31:59.412Z,15.57
2018-11-14T11:34:28.757Z,16.17
2018-11-14T11:36:58.039Z,16.87
2018-11-14T11:39:27.498Z,17.43
2018-11-14T11:41:56.832Z,17.78
2018-11-14T11:44:26.538Z,17.58
2018-11-14T11:46:56.066Z,17.38
2018-11-14T11:49:25.570Z,17.67
2018-11-14T11:51:55.092Z,17.99
2018-11-14T11:54:25.043Z,16.15
2018-11-14T11:56:54.499Z,16.52
2018-11-14T11:59:23.993Z,18.07
2018-11-14T12:01:53.467Z,17.48
2018-11-14T12:04:23.006Z,17.67
2018-11-14T12:06:52.487Z,18.55
2018-11-14T12:09:21.788Z,18.22
2018-11-14T12:11:51.107Z,18.65
2018-11-14T12:14:20.576Z,18.63
2018-11-14T12:16:50.198Z,18.15
2018-11-14T12:19:19.666Z,17.20
2018-11-14T12:21:49.098Z,17.47
2018-11-14T12:24:18.663Z,17.79
2018-11-14T12:26:48.363Z,16.11
2018-11-14T12:29:17.815Z,16.63
2018-11-14T12:31:47.315Z,16.06
2018-11-14T12:34:16.850Z,15.67
2018-11-14T12:36:46.327Z,16.64
2018-11-14T12:39:16.081Z,17.70
2018-11-14T12:41:45.587Z,15.01
2018-11-14T12:44:16.291Z,16.38
2018-11-14T12:46:46.040Z,17.32
2018-11-14T12:49:15.572Z,15.42
2018-11-14T12:51:45.009Z,17.16
2018-11-14T12:54:14.590Z,18.23
2018-11-14T12:56:43.805Z,18.45
2018-11-14T12:59:14.665Z,18.40
2018-11-14T13:01:43.894Z,18.50
2018-11-14T13:04:13.783Z,17.99
2018-11-14T13:06:43.334Z,16.39
2018-11-14T13:09:12.848Z,17.09
2018-11-14T13:11:42.289Z,17.22
2018-11-14T13:14:12.032Z,16.75
2018-11-14T13:16:41.585Z,17.25
2018-11-14T13:19:10.816Z,15.86
2018-11-14T13:21:40.163Z,17.07
2018-11-14T13:24:09.603Z,16.37
2018-11-14T13:26:39.149Z,16.25
2018-11-14T13:29:08.622Z,16.68
2018-11-14T13:31:38.334Z,15.41
2018-11-14T13:34:07.899Z,16.17
2018-11-14T13:36:37.800Z,15.71
2018-11-14T13:39:08.991Z,16.15
2018-11-14T13:41:38.255Z,16.36
2018-11-14T13:44:07.712Z,16.53
2018-11-14T13:46:37.208Z,15.95
2018-11-14T13:49:06.476Z,15.33
2018-11-14T13:51:35.794Z,15.09
2018-11-14T13:54:05.707Z,15.06
2018-11-14T13:56:35.053Z,14.39
2018-11-14T13:59:04.503Z,14.31
2018-11-14T14:01:34.027Z,14.08
2018-11-14T14:04:03.680Z,13.39
2018-11-14T14:06:33.471Z,13.68
2018-11-14T14:09:02.999Z,13.85
2018-11-14T14:11:32.482Z,13.75
2018-11-14T14:14:07.231Z,13.51
2018-11-14T14:16:37.040Z,12.97
2018-11-14T14:19:07.245Z,13.22
2018-11-14T14:21:36.683Z,13.27
2018-11-14T14:24:06.553Z,13.17
2018-11-14T14:26:36.867Z,13.02
2018-11-14T14:29:07.243Z,13.09
2018-11-14T14:31:37.106Z,13.07
2018-11-14T14:34:07.125Z,13.11
2018-11-14T14:36:36.503Z,13.13
2018-11-14T14:39:09.159Z,13.15
2018-11-14T14:41:39.199Z,13.05
2018-11-14T14:44:08.694Z,12.87
2018-11-14T14:46:38.264Z,12.61
2018-11-14T14:49:07.782Z,12.77
2018-11-14T14:51:37.228Z,12.76
2018-11-14T14:54:06.739Z,12.70
2018-11-14T14:56:36.007Z,12.51
2018-11-14T14:59:06.616Z,12.54
2018-11-14T15:01:36.100Z,12.56
2018-11-14T15:04:05.999Z,12.31
2018-11-14T15:06:35.470Z,12.47
2018-11-14T15:09:07.530Z,12.52
2018-11-14T15:11:36.771Z,12.20
2018-11-14T15:14:06.676Z,12.26
2018-11-14T15:16:36.652Z,12.21
2018-11-14T15:19:06.800Z,12.24
2018-11-14T15:21:36.440Z,12.23
2018-11-14T15:24:06.724Z,12.25
2018-11-14T15:26:36.230Z,11.97
2018-11-14T15:29:06.265Z,12.08
2018-11-14T15:31:35.646Z,11.91
2018-11-14T15:34:05.827Z,11.98
2018-11-14T15:36:35.479Z,11.92
2018-11-14T15:39:07.590Z,11.89
2018-11-14T15:41:36.839Z,11.85
2018-11-14T15:44:06.352Z,11.87
2018-11-14T15:46:35.646Z,11.87
2018-11-14T15:49:05.906Z,11.71
2018-11-14T15:51:35.517Z,11.70
2018-11-14T15:54:05.442Z,11.71
2018-11-14T15:56:34.780Z,11.63
2018-11-14T15:59:04.663Z,11.55
2018-11-14T16:01:34.021Z,11.47
2018-11-14T16:04:03.518Z,11.40
2018-11-14T16:06:33.035Z,11.33
2018-11-14T16:09:02.563Z,11.21
2018-11-14T16:11:36.713Z,11.18
2018-11-14T16:14:06.398Z,11.13
2018-11-14T16:16:35.763Z,11.06
2018-11-14T16:19:05.735Z,10.95
2018-11-14T16:21:34.979Z,10.97
2018-11-14T16:24:04.573Z,10.76
2018-11-14T16:26:34.718Z,10.77
2018-11-14T16:29:04.174Z,10.78
2018-11-14T16:31:33.639Z,10.72
2018-11-14T16:34:02.820Z,10.67
2018-11-14T16:36:32.623Z,10.61
2018-11-14T16:39:02.166Z,10.36
2018-11-14T16:41:31.799Z,10.42
2018-11-14T16:44:01.552Z,10.42
2018-11-14T16:46:31.750Z,10.45
2018-11-14T16:49:01.203Z,10.26
2018-11-14T16:51:31.348Z,10.05
2018-11-14T16:54:00.788Z,10.05
2018-11-14T16:56:30.323Z,10.08
2018-11-14T16:58:59.795Z,10.04
2018-11-14T17:01:29.052Z,9.81
2018-11-14T17:03:58.834Z,9.94
2018-11-14T17:06:28.922Z,9.91
2018-11-14T17:08:58.471Z,9.78
2018-11-14T17:11:27.754Z,9.84
2018-11-14T17:13:57.074Z,9.74
2018-11-14T17:16:26.550Z,9.76
2018-11-14T17:18:56.091Z,9.69
2018-11-14T17:21:25.518Z,9.62
2018-11-14T17:23:55.058Z,9.65
2018-11-14T17:26:24.532Z,9.64
2018-11-14T17:28:54.660Z,9.53
2018-11-14T17:31:24.435Z,9.52
2018-11-14T17:33:54.372Z,9.48
2018-11-14T17:36:23.807Z,9.39
2018-11-14T17:38:53.313Z,9.43
2018-11-14T17:41:23.151Z,9.30
2018-11-14T17:43:52.603Z,9.12
2018-11-14T17:46:21.851Z,9.18
2018-11-14T17:48:51.130Z,8.94
2018-11-14T17:51:20.379Z,8.81
2018-11-14T17:53:49.622Z,9.06
2018-11-14T17:56:19.035Z,9.01
2018-11-14T17:58:48.277Z,8.98
2018-11-14T18:01:17.632Z,8.88
2018-11-14T18:03:47.365Z,8.82
2018-11-14T18:06:16.857Z,8.78
2018-11-14T18:08:46.351Z,8.80
2018-11-14T18:11:15.900Z,8.81
2018-11-14T18:13:45.385Z,8.90
2018-11-14T18:16:14.842Z,8.81
2018-11-14T18:18:44.374Z,8.61
2018-11-14T18:21:13.884Z,8.56
2018-11-14T18:23:43.378Z,8.55
2018-11-14T18:26:13.135Z,8.39
2018-11-14T18:28:43.415Z,8.29
2018-11-14T18:31:13.124Z,8.13
2018-11-14T18:33:42.836Z,7.85
2018-11-14T18:36:12.962Z,8.17
2018-11-14T18:38:42.880Z,8.08
2018-11-14T18:41:12.355Z,8.01
2018-11-14T18:43:42.343Z,8.03
2018-11-14T18:46:11.624Z,8.00
2018-11-14T18:48:41.640Z,7.93
2018-11-14T18:51:11.428Z,7.94
2018-11-14T18:53:45.175Z,7.92
2018-11-14T18:56:14.734Z,7.91
2018-11-14T18:58:44.664Z,7.84
2018-11-14T19:01:14.167Z,7.85
2018-11-14T19:03:44.126Z,7.82
2018-11-14T19:06:14.230Z,7.82
2018-11-14T19:08:44.199Z,7.81
2018-11-14T19:11:13.625Z,7.81
2018-11-14T19:13:43.587Z,7.73
2018-11-14T19:16:13.062Z,7.82
2018-11-14T19:18:42.673Z,7.78
2018-11-14T19:21:12.255Z,7.76
2018-11-14T19:23:43.659Z,7.80
2018-11-14T19:26:13.113Z,7.72
2018-11-14T19:28:42.877Z,7.66
2018-11-14T19:31:12.724Z,7.72
2018-11-14T19:33:42.239Z,7.70
2018-11-14T19:36:11.952Z,7.63
2018-11-14T19:38:41.435Z,7.63
2018-11-14T19:41:11.002Z,7.57
2018-11-14T19:43:40.455Z,7.56
2018-11-14T19:46:09.950Z,7.55
2018-11-14T19:48:39.322Z,7.51
2018-11-14T19:51:09.154Z,7.51
2018-11-14T19:53:39.317Z,7.52
2018-11-14T19:56:09.393Z,7.51
2018-11-14T19:58:38.979Z,7.59
2018-11-14T20:01:08.363Z,7.54
2018-11-14T20:03:38.040Z,7.55
2018-11-14T20:06:07.487Z,7.50
2018-11-14T20:08:36.927Z,7.54
2018-11-14T20:11:06.354Z,7.60
2018-11-14T20:13:35.912Z,7.57
2018-11-14T20:16:05.515Z,7.55
2018-11-14T20:18:34.924Z,7.59
2018-11-14T20:21:04.470Z,7.57
2018-11-14T20:23:33.729Z,7.59
2018-11-14T20:26:03.281Z,7.65
2018-11-14T20:28:32.789Z,7.64
2018-11-14T20:31:02.087Z,7.61
2018-11-14T20:33:31.551Z,7.65
2018-11-14T20:36:01.093Z,7.67
2018-11-14T20:38:30.429Z,7.75
2018-11-14T20:41:00.084Z,7.63
2018-11-14T20:43:29.589Z,7.75
2018-11-14T20:45:59.291Z,7.83
2018-11-14T20:48:28.785Z,7.79
2018-11-14T20:50:58.312Z,7.59
2018-11-14T20:53:27.819Z,7.62
2018-11-14T20:55:57.290Z,7.64
2018-11-14T20:58:27.096Z,7.65
2018-11-14T21:00:56.530Z,7.68
2018-11-14T21:03:26.119Z,7.79
2018-11-14T21:05:55.553Z,7.84
2018-11-14T21:08:24.819Z,7.81
2018-11-14T21:10:54.705Z,7.94
2018-11-14T21:13:24.298Z,7.49
2018-11-14T21:15:54.287Z,7.96
2018-11-14T21:18:23.698Z,7.96
2018-11-14T21:20:53.152Z,7.94
2018-11-14T21:23:22.718Z,7.95
2018-11-14T21:25:52.160Z,7.96
2018-11-14T21:28:21.898Z,7.92
2018-11-14T21:30:51.377Z,7.94
2018-11-14T21:33:21.372Z,8.02
2018-11-14T21:35:51.011Z,7.97
2018-11-14T21:38:20.562Z,8.09
2018-11-14T21:40:50.028Z,8.04
2018-11-14T21:43:19.596Z,8.11
2018-11-14T21:45:49.034Z,8.18
2018-11-14T21:48:18.898Z,8.11
2018-11-14T21:50:48.438Z,8.19
2018-11-14T21:53:17.843Z,8.26
2018-11-14T21:55:47.866Z,8.27
2018-11-14T21:58:17.553Z,8.31
2018-11-14T22:00:47.165Z,8.24
2018-11-14T22:03:16.631Z,8.39
2018-11-14T22:05:46.103Z,8.34
2018-11-14T22:08:15.679Z,8.45
2018-11-14T22:10:45.264Z,8.32
2018-11-14T22:13:14.805Z,8.49
2018-11-14T22:15:44.330Z,8.48
2018-11-14T22:18:13.824Z,8.41
2018-11-14T22:20:43.342Z,8.34
2018-11-14T22:23:13.042Z,8.35
2018-11-14T22:25:42.541Z,8.46
2018-11-14T22:28:12.287Z,8.51
2018-11-14T22:30:41.985Z,8.51
2018-11-14T22:33:11.480Z,8.52
2018-11-14T22:35:41.040Z,8.60
2018-11-14T22:38:10.283Z,8.57
2018-11-14T22:40:39.799Z,8.65
2018-11-14T22:43:09.274Z,8.61
2018-11-14T22:45:38.639Z,8.61
2018-11-14T22:48:08.088Z,8.61
2018-11-14T22:50:37.581Z,8.51
2018-11-14T22:53:07.120Z,8.70
2018-11-14T22:55:36.628Z,8.62
2018-11-14T22:58:06.153Z,8.67
2018-11-14T23:00:40.842Z,8.67
2018-11-14T23:03:10.101Z,8.62
2018-11-14T23:05:39.348Z,8.71
2018-11-14T23:08:08.592Z,8.54
2018-11-14T23:10:37.951Z,8.66
2018-11-14T23:13:07.492Z,8.66
2018-11-14T23:15:37.026Z,8.81
2018-11-14T23:18:06.672Z,8.77
2018-11-14T23:20:36.150Z,8.83
2018-11-14T23:23:06.729Z,8.82
2018-11-14T23:25:36.220Z,8.66
2018-11-14T23:28:06.066Z,8.76
2018-11-14T23:30:35.401Z,8.68
2018-11-14T23:33:05.648Z,8.76
2018-11-14T23:35:34.868Z,8.66
2018-11-14T23:38:05.847Z,8.82
2018-11-14T23:40:35.279Z,8.84
2018-11-14T23:43:05.215Z,8.85
2018-11-14T23:45:34.499Z,8.63
2018-11-14T23:48:04.015Z,8.85
2018-11-14T23:50:33.514Z,8.60
2018-11-14T23:53:03.671Z,8.54
2018-11-14T23:55:34.151Z,8.59
2018-11-14T23:58:03.685Z,8.55
